Time;durP1;ratioP1;P1;durP2;ratioP2;P2;SDS_P1;SDS_P2;PMS_P1;PMS_P2;Temp;Humidity;BMP_temperature;BMP_pressure;BME280_temperature;BME280_humidity;BME280_pressure;Samples;Min_cycle;Max_cycle;Signal;HPM_P1;HPM_P2
2023/12/02 00:01:38;;;;;;;32.80;14.17;;;;;;;-1.73;62.97;100732.31;5006180;28;96853;-72
2023/12/02 00:04:03;;;;;;;29.10;12.60;;;;;;;-1.70;63.18;100722.56;5004429;28;97415;-72
2023/12/02 00:06:29;;;;;;;29.47;12.50;;;;;;;-1.70;63.06;100717.91;5004331;28;98367;-72
2023/12/02 00:08:54;;;;;;;30.57;13.77;;;;;;;-1.69;62.95;100718.69;5004707;28;97535;-72
2023/12/02 00:11:19;;;;;;;29.70;12.53;;;;;;;-1.72;63.10;100719.53;5004998;28;97034;-71
2023/12/02 00:13:46;;;;;;;31.40;13.93;;;;;;;-1.74;62.90;100717.25;5002921;28;97082;-72
2023/12/02 00:16:12;;;;;;;25.93;12.90;;;;;;;-1.72;63.34;100714.09;5004267;28;97429;-72
2023/12/02 00:18:37;;;;;;;31.57;13.30;;;;;;;-1.73;63.06;100710.63;5003064;28;100298;-72
2023/12/02 00:21:02;;;;;;;32.07;12.87;;;;;;;-1.72;63.43;100712.16;5005378;28;98837;-71
2023/12/02 00:23:28;;;;;;;27.30;12.83;;;;;;;-1.70;63.20;100717.13;5004047;28;97388;-71
2023/12/02 00:25:53;;;;;;;26.37;12.70;;;;;;;-1.69;63.29;100711.31;5005638;28;97262;-71
2023/12/02 00:28:20;;;;;;;33.07;13.40;;;;;;;-1.69;63.00;100713.25;5004791;28;97709;-72
2023/12/02 00:30:45;;;;;;;33.07;15.53;;;;;;;-1.68;63.10;100704.69;5004913;28;97585;-72
2023/12/02 00:33:11;;;;;;;34.53;15.67;;;;;;;-1.69;63.10;100713.25;5009198;28;97488;-72
2023/12/02 00:35:36;;;;;;;35.60;14.53;;;;;;;-1.67;63.21;100706.22;5004596;28;97623;-72
2023/12/02 00:38:02;;;;;;;31.03;13.90;;;;;;;-1.69;63.32;100703.16;5005810;28;107948;-72
2023/12/02 00:40:27;;;;;;;34.23;14.70;;;;;;;-1.69;63.26;100713.25;5003998;28;98620;-72
2023/12/02 00:42:52;;;;;;;30.20;13.07;;;;;;;-1.67;63.05;100708.16;5003629;28;97253;-72
2023/12/02 00:45:18;;;;;;;32.17;14.23;;;;;;;-1.66;63.12;100712.38;5006255;28;97469;-72
2023/12/02 00:47:43;;;;;;;33.77;13.60;;;;;;;-1.68;63.49;100710.09;5005283;28;97474;-72
2023/12/02 00:50:09;;;;;;;35.30;14.10;;;;;;;-1.65;63.06;100708.50;5002158;28;98640;-72
2023/12/02 00:52:34;;;;;;;30.20;13.53;;;;;;;-1.66;63.35;100704.25;5003282;28;96802;-72
2023/12/02 00:54:59;;;;;;;30.03;14.40;;;;;;;-1.63;62.96;100706.09;5004216;28;96970;-72
2023/12/02 00:57:25;;;;;;;33.20;13.70;;;;;;;-1.66;63.19;100699.59;5002047;28;97990;-72
2023/12/02 00:59:50;;;;;;;33.53;14.03;;;;;;;-1.65;63.32;100692.97;5006194;28;104597;-72
2023/12/02 01:02:16;;;;;;;38.37;14.10;;;;;;;-1.61;63.30;100699.06;5001022;28;97830;-72
2023/12/02 01:04:42;;;;;;;32.83;13.83;;;;;;;-1.60;63.14;100706.00;5003816;28;97355;-72
2023/12/02 01:07:07;;;;;;;33.43;14.40;;;;;;;-1.58;63.11;100694.72;5004342;27;98627;-72
2023/12/02 01:09:32;;;;;;;37.60;15.23;;;;;;;-1.58;63.33;100692.00;5002881;28;97221;-72
2023/12/02 01:11:58;;;;;;;35.67;13.87;;;;;;;-1.56;63.14;100693.09;5005438;28;97299;-72
2023/12/02 01:14:25;;;;;;;37.00;14.60;;;;;;;-1.55;63.17;100699.28;5004295;28;97191;-71
2023/12/02 01:16:51;;;;;;;36.33;15.20;;;;;;;-1.57;63.41;100699.72;5003029;28;101228;-71
2023/12/02 01:19:16;;;;;;;32.87;13.83;;;;;;;-1.58;63.24;100700.88;5003593;28;97446;-72
2023/12/02 01:21:41;;;;;;;35.63;14.37;;;;;;;-1.55;63.45;100710.88;5003776;28;96905;-72
2023/12/02 01:24:07;;;;;;;32.60;14.30;;;;;;;-1.56;63.28;100722.19;5003299;28;101517;-72
2023/12/02 01:26:32;;;;;;;33.10;15.10;;;;;;;-1.56;63.35;100714.81;5006227;28;98925;-72
2023/12/02 01:28:58;;;;;;;41.27;15.80;;;;;;;-1.55;63.42;100710.88;5004939;28;101600;-72
2023/12/02 01:31:24;;;;;;;36.30;13.77;;;;;;;-1.54;63.25;100717.09;5004875;28;97029;-71
2023/12/02 01:33:49;;;;;;;36.33;15.57;;;;;;;-1.52;63.33;100707.31;5006276;28;97502;-72
2023/12/02 01:36:14;;;;;;;40.80;15.50;;;;;;;-1.52;63.39;100718.19;5004889;28;97339;-71
2023/12/02 01:38:40;;;;;;;31.73;13.30;;;;;;;-1.47;63.38;100716.88;5005159;28;97106;-72
2023/12/02 01:41:05;;;;;;;38.07;15.07;;;;;;;-1.46;63.29;100710.25;5005218;28;97337;-71
2023/12/02 01:43:31;;;;;;;32.07;13.50;;;;;;;-1.46;63.22;100712.97;5005672;28;97539;-72
2023/12/02 01:45:56;;;;;;;34.23;13.83;;;;;;;-1.46;63.42;100716.44;5007851;28;97655;-72
2023/12/02 01:48:29;;;;;;;33.50;14.50;;;;;;;-1.47;63.12;100709.47;5004644;28;97498;-72
2023/12/02 01:50:55;;;;;;;36.90;14.80;;;;;;;-1.45;63.19;100719.94;5006725;28;96639;-72
2023/12/02 01:53:20;;;;;;;42.77;15.37;;;;;;;-1.44;63.44;100716.00;5005367;28;101237;-72
2023/12/02 01:55:46;;;;;;;33.50;13.90;;;;;;;-1.45;63.33;100717.22;5004756;28;97332;-72
2023/12/02 01:58:11;;;;;;;38.70;14.70;;;;;;;-1.44;63.43;100713.28;5004446;28;98161;-72
2023/12/02 02:00:36;;;;;;;35.37;14.13;;;;;;;-1.46;63.38;100710.25;5004483;28;97629;-72
2023/12/02 02:03:02;;;;;;;32.30;13.63;;;;;;;-1.45;63.48;100717.22;5005380;28;97647;-72
2023/12/02 02:05:27;;;;;;;33.07;13.77;;;;;;;-1.46;63.22;100711.00;5003816;28;97325;-72
2023/12/02 02:07:53;;;;;;;32.97;12.83;;;;;;;-1.46;63.56;100713.72;5003453;28;99335;-72
2023/12/02 02:10:22;;;;;;;38.33;14.47;;;;;;;-1.45;63.35;100704.38;5004067;28;97289;-72
2023/12/02 02:12:47;;;;;;;39.20;14.67;;;;;;;-1.42;63.49;100716.31;5006485;28;97103;-72
2023/12/02 02:15:13;;;;;;;36.10;13.97;;;;;;;-1.39;63.41;100710.03;5003198;28;99240;-72
2023/12/02 02:17:39;;;;;;;31.37;13.10;;;;;;;-1.39;63.54;100727.09;5002018;28;100166;-72
2023/12/02 02:20:05;;;;;;;31.30;13.30;;;;;;;-1.40;63.52;100713.94;5005139;28;97156;-71
2023/12/02 02:22:30;;;;;;;30.07;13.20;;;;;;;-1.39;63.46;100718.19;5004085;28;97811;-72
2023/12/02 02:24:56;;;;;;;33.00;12.33;;;;;;;-1.42;63.34;100716.31;5004215;28;98563;-72
2023/12/02 02:27:22;;;;;;;30.67;12.33;;;;;;;-1.42;63.39;100719.81;5004242;28;97297;-72
2023/12/02 02:29:47;;;;;;;28.47;12.90;;;;;;;-1.44;63.40;100716.00;5005295;28;97070;-72
2023/12/02 02:32:12;;;;;;;35.10;13.87;;;;;;;-1.43;63.54;100720.25;5005275;27;97280;-72
2023/12/02 02:34:41;;;;;;;30.20;13.10;;;;;;;-1.43;63.68;100731.88;5003614;28;97252;-71
2023/12/02 02:37:07;;;;;;;30.17;11.23;;;;;;;-1.42;63.32;100716.31;5002290;28;100373;-72
2023/12/02 02:39:33;;;;;;;30.50;13.27;;;;;;;-1.42;63.58;100710.91;5004225;28;97015;-72
2023/12/02 02:41:58;;;;;;;30.10;12.40;;;;;;;-1.41;63.58;100720.56;5004040;28;96659;-72
2023/12/02 02:44:23;;;;;;;28.77;12.60;;;;;;;-1.40;63.49;100719.38;5004282;28;98965;-71
2023/12/02 02:46:49;;;;;;;32.67;14.17;;;;;;;-1.38;63.63;100712.31;5008260;28;101943;-72
2023/12/02 02:49:14;;;;;;;30.23;12.27;;;;;;;-1.37;63.63;100713.09;5004382;28;97246;-72
2023/12/02 02:51:40;;;;;;;29.27;11.80;;;;;;;-1.38;63.68;100715.03;5004187;28;96714;-71
2023/12/02 02:54:05;;;;;;;27.73;13.10;;;;;;;-1.37;63.67;100713.84;5003677;28;98345;-72
2023/12/02 02:56:30;;;;;;;26.60;13.07;;;;;;;-1.36;63.57;100722.75;5000778;28;110264;-71
2023/12/02 02:58:56;;;;;;;28.10;12.27;;;;;;;-1.40;63.45;100709.28;5004958;28;97030;-72
2023/12/02 03:01:22;;;;;;;34.80;13.33;;;;;;;-1.39;63.50;100710.81;5003714;28;97667;-72
2023/12/02 03:03:48;;;;;;;26.33;12.23;;;;;;;-1.39;63.46;100710.03;5003301;28;98736;-72
2023/12/02 03:06:13;;;;;;;28.43;11.63;;;;;;;-1.38;63.50;100706.13;5003057;28;97612;-73
2023/12/02 03:08:38;;;;;;;28.40;13.17;;;;;;;-1.37;63.63;100713.09;5002897;28;97029;-72
2023/12/02 03:11:04;;;;;;;33.00;13.43;;;;;;;-1.38;63.60;100711.56;5004191;28;97217;-72
2023/12/02 03:13:29;;;;;;;24.30;12.53;;;;;;;-1.39;63.46;100715.47;5002856;28;99009;-71
2023/12/02 03:15:55;;;;;;;29.70;13.10;;;;;;;-1.40;63.57;100719.38;5003088;28;99867;-72
2023/12/02 03:18:20;;;;;;;29.83;13.70;;;;;;;-1.40;63.61;100720.13;5007262;28;97207;-72
2023/12/02 03:20:45;;;;;;;30.10;12.80;;;;;;;-1.42;63.38;100744.22;5006937;28;97304;-73
2023/12/02 03:23:10;;;;;;;29.90;13.50;;;;;;;-1.46;63.43;100713.72;5004448;28;99191;-71
2023/12/02 03:25:36;;;;;;;27.73;12.80;;;;;;;-1.46;63.68;100724.59;5006128;28;101530;-71
2023/12/02 03:28:01;;;;;;;30.73;12.37;;;;;;;-1.49;63.74;100721.97;5008914;28;97047;-72
2023/12/02 03:30:27;;;;;;;29.07;12.80;;;;;;;-1.49;63.66;100716.56;5008198;28;97235;-72
2023/12/02 03:32:53;;;;;;;28.47;13.30;;;;;;;-1.50;63.48;100717.72;5006858;28;99957;-71
2023/12/02 03:35:19;;;;;;;34.33;14.80;;;;;;;-1.49;63.58;100713.84;5006531;28;97477;-71
2023/12/02 03:37:45;;;;;;;40.17;14.90;;;;;;;-1.51;63.63;100718.91;5006987;28;96810;-72
2023/12/02 03:40:11;;;;;;;36.03;15.50;;;;;;;-1.47;63.54;100714.16;5009263;28;97119;-72
2023/12/02 03:42:36;;;;;;;32.57;14.40;;;;;;;-1.46;63.80;100715.69;5008790;28;97560;-71
2023/12/02 03:45:02;;;;;;;28.73;13.50;;;;;;;-1.51;63.53;100714.25;5006996;28;97114;-72
2023/12/02 03:47:28;;;;;;;31.20;13.50;;;;;;;-1.48;63.41;100707.97;5005754;28;97299;-72
2023/12/02 03:49:53;;;;;;;29.53;13.40;;;;;;;-1.53;63.40;100705.78;5006592;28;97278;-71
2023/12/02 03:52:19;;;;;;;27.40;13.90;;;;;;;-1.55;63.85;100710.13;4998385;28;100447;-72
2023/12/02 03:54:44;;;;;;;32.53;14.03;;;;;;;-1.54;63.64;100711.66;5006315;28;97957;-72
2023/12/02 03:57:09;;;;;;;32.73;13.70;;;;;;;-1.55;63.86;100710.88;5005626;28;96922;-72
2023/12/02 03:59:35;;;;;;;30.47;13.80;;;;;;;-1.53;63.57;100703.06;5007498;28;96867;-71
2023/12/02 04:02:01;;;;;;;29.50;12.50;;;;;;;-1.53;63.52;100711.22;5005237;28;98023;-71
2023/12/02 04:04:26;;;;;;;33.87;14.07;;;;;;;-1.52;63.62;100717.41;5006630;28;97807;-72
2023/12/02 04:06:51;;;;;;;27.80;13.23;;;;;;;-1.55;63.62;100719.03;5006937;28;97483;-72
2023/12/02 04:09:17;;;;;;;32.13;14.20;;;;;;;-1.59;63.47;100717.59;5005230;28;97484;-72
2023/12/02 04:11:46;;;;;;;31.07;14.13;;;;;;;-1.58;63.36;100719.88;5005564;28;106463;-72
2023/12/02 04:14:12;;;;;;;31.07;14.00;;;;;;;-1.57;63.69;100717.94;5005641;28;99759;-72
2023/12/02 04:16:41;;;;;;;31.57;13.33;;;;;;;-1.55;63.65;100723.69;5006126;28;97936;-72
2023/12/02 04:19:07;;;;;;;30.40;13.83;;;;;;;-1.54;63.71;100731.41;5005660;28;97702;-73
2023/12/02 04:21:34;;;;;;;30.87;13.83;;;;;;;-1.50;63.64;100728.59;5005201;28;97096;-71
2023/12/02 04:23:59;;;;;;;28.63;14.60;;;;;;;-1.50;63.59;100726.63;5004903;28;97285;-72
2023/12/02 04:26:25;;;;;;;29.47;13.87;;;;;;;-1.49;63.50;100721.97;5005678;28;97206;-72
2023/12/02 04:28:50;;;;;;;32.83;14.30;;;;;;;-1.50;63.40;100723.16;5004323;28;97432;-72
2023/12/02 04:31:16;;;;;;;26.97;12.80;;;;;;;-1.51;63.69;100737.91;5005218;28;97023;-72
2023/12/02 04:33:42;;;;;;;32.57;13.93;;;;;;;-1.51;63.55;100729.75;5005943;28;99722;-72
2023/12/02 04:36:08;;;;;;;33.37;14.80;;;;;;;-1.55;63.54;100723.69;5006704;27;98831;-72
2023/12/02 04:38:34;;;;;;;33.37;14.90;;;;;;;-1.55;63.34;100723.69;5008714;28;97478;-71
2023/12/02 04:40:59;;;;;;;32.83;14.57;;;;;;;-1.56;63.55;100722.19;5005605;28;98920;-72
2023/12/02 04:43:25;;;;;;;28.87;13.00;;;;;;;-1.54;63.63;100727.94;5006558;28;107715;-72
2023/12/02 04:45:50;;;;;;;30.97;15.07;;;;;;;-1.53;63.40;100741.06;5005560;28;98944;-72
2023/12/02 04:48:16;;;;;;;28.87;14.03;;;;;;;-1.53;63.68;100730.19;5006026;28;96884;-72
2023/12/02 04:50:41;;;;;;;29.30;13.80;;;;;;;-1.50;63.45;100734.78;5004930;28;97321;-72
2023/12/02 04:53:09;;;;;;;31.53;14.33;;;;;;;-1.50;63.40;100745.63;5006682;28;97738;-72
2023/12/02 04:55:35;;;;;;;30.20;14.00;;;;;;;-1.51;63.22;100725.09;5002070;28;99085;-70
2023/12/02 04:58:01;;;;;;;34.17;14.60;;;;;;;-1.52;63.29;100734.44;5004890;28;97210;-71
2023/12/02 05:00:27;;;;;;;32.07;13.93;;;;;;;-1.56;63.58;100733.78;5006098;28;97319;-72
2023/12/02 05:02:53;;;;;;;27.47;14.00;;;;;;;-1.56;63.54;100735.75;5004603;28;99976;-72
2023/12/02 05:05:19;;;;;;;30.37;14.23;;;;;;;-1.59;63.54;100739.31;5005287;28;96784;-72
2023/12/02 05:07:45;;;;;;;29.73;13.93;;;;;;;-1.58;63.57;100740.84;5005252;28;97007;-72
2023/12/02 05:10:10;;;;;;;27.27;14.10;;;;;;;-1.59;63.46;100739.31;5005072;28;97419;-72
2023/12/02 05:12:36;;;;;;;30.57;14.70;;;;;;;-1.60;63.38;100743.97;5003134;28;97345;-72
2023/12/02 05:15:02;;;;;;;33.20;15.23;;;;;;;-1.64;63.52;100747.97;5004595;28;96949;-72
2023/12/02 05:17:27;;;;;;;24.80;12.63;;;;;;;-1.61;63.63;100747.88;5005901;28;96720;-72
2023/12/02 05:19:53;;;;;;;26.83;12.63;;;;;;;-1.61;63.45;100747.88;5002895;28;100284;-72
2023/12/02 05:22:18;;;;;;;32.40;14.53;;;;;;;-1.61;63.57;100756.00;5005512;28;98056;-72
2023/12/02 05:24:44;;;;;;;29.93;14.53;;;;;;;-1.61;63.43;100745.16;5003858;28;97117;-72
2023/12/02 05:27:09;;;;;;;29.73;15.03;;;;;;;-1.63;63.48;100744.84;5004792;28;98566;-71
2023/12/02 05:29:34;;;;;;;28.67;14.00;;;;;;;-1.63;63.63;100746.78;5004773;28;96828;-72
2023/12/02 05:32:00;;;;;;;28.53;13.77;;;;;;;-1.63;63.52;100747.56;5006179;28;98199;-72
2023/12/02 05:34:25;;;;;;;30.40;13.73;;;;;;;-1.61;63.53;100744.41;5006589;28;100479;-72
2023/12/02 05:36:51;;;;;;;30.17;14.23;;;;;;;-1.60;63.54;100745.94;5004269;28;96729;-72
2023/12/02 05:39:16;;;;;;;32.47;14.30;;;;;;;-1.62;63.75;100742.91;5001681;28;99699;-72
2023/12/02 05:41:44;;;;;;;32.07;14.77;;;;;;;-1.60;63.51;100749.38;5005700;28;97374;-72
2023/12/02 05:44:10;;;;;;;34.17;15.57;;;;;;;-1.60;63.66;100733.09;5005163;28;96991;-73
2023/12/02 05:46:36;;;;;;;29.97;14.17;;;;;;;-1.58;63.56;100746.25;5006774;28;97398;-72
2023/12/02 05:49:01;;;;;;;33.50;15.00;;;;;;;-1.58;63.52;100740.84;5001386;28;103001;-73
2023/12/02 05:51:27;;;;;;;33.23;13.73;;;;;;;-1.62;63.53;100735.50;5004876;28;98535;-72
2023/12/02 05:53:52;;;;;;;31.03;14.90;;;;;;;-1.60;63.60;100735.09;5005411;28;97485;-72
2023/12/02 05:56:19;;;;;;;30.07;13.83;;;;;;;-1.60;63.73;100740.50;5005062;28;97164;-71
2023/12/02 05:58:45;;;;;;;29.23;14.30;;;;;;;-1.62;63.52;100751.03;5004849;28;97639;-72
2023/12/02 06:01:11;;;;;;;31.73;14.63;;;;;;;-1.62;63.56;100751.03;5002693;28;96823;-72
2023/12/02 06:03:36;;;;;;;32.73;15.00;;;;;;;-1.63;63.77;100749.50;5002847;28;99614;-72
2023/12/02 06:06:01;;;;;;;35.87;15.47;;;;;;;-1.65;63.46;100741.78;5003907;28;105425;-71
2023/12/02 06:08:27;;;;;;;35.37;14.47;;;;;;;-1.61;63.74;100741.69;5005511;28;97422;-72
2023/12/02 06:10:52;;;;;;;33.90;16.33;;;;;;;-1.61;63.82;100747.13;5003797;28;97467;-72
2023/12/02 06:13:18;;;;;;;30.07;14.60;;;;;;;-1.60;63.72;100748.66;5003060;28;97228;-72
2023/12/02 06:15:43;;;;;;;35.27;15.13;;;;;;;-1.60;63.60;100746.66;5003638;28;97127;-72
2023/12/02 06:18:09;;;;;;;33.23;16.27;;;;;;;-1.59;63.77;100758.28;5003467;28;97435;-72
2023/12/02 06:20:34;;;;;;;33.70;14.90;;;;;;;-1.57;63.62;100742.34;5003724;28;96905;-72
2023/12/02 06:22:59;;;;;;;30.23;15.20;;;;;;;-1.55;63.55;100739.97;5004790;28;97400;-72
2023/12/02 06:25:25;;;;;;;36.97;15.70;;;;;;;-1.56;63.43;100752.78;5004707;28;97312;-72
2023/12/02 06:27:50;;;;;;;35.50;16.30;;;;;;;-1.55;63.78;100756.22;5003122;28;98120;-72
2023/12/02 06:30:17;;;;;;;38.27;15.93;;;;;;;-1.54;63.59;100750.41;5003885;28;97423;-72
2023/12/02 06:32:42;;;;;;;34.00;15.33;;;;;;;-1.51;63.59;100760.38;5002259;28;97318;-71
2023/12/02 06:35:10;;;;;;;31.27;14.93;;;;;;;-1.50;63.69;100770.03;5004077;27;96994;-73
2023/12/02 06:37:35;;;;;;;34.00;15.33;;;;;;;-1.51;63.43;100760.38;5003644;28;97556;-72
2023/12/02 06:40:00;;;;;;;34.50;15.40;;;;;;;-1.50;63.73;100772.00;5003808;28;99114;-72
2023/12/02 06:42:26;;;;;;;36.30;16.63;;;;;;;-1.49;63.56;100771.56;5005166;28;97408;-72
2023/12/02 06:44:51;;;;;;;30.47;15.03;;;;;;;-1.46;63.49;100764.50;5002778;28;97330;-72
2023/12/02 06:47:17;;;;;;;35.40;17.03;;;;;;;-1.44;63.49;100775.69;5006094;28;100510;-72
2023/12/02 06:49:42;;;;;;;39.07;17.70;;;;;;;-1.43;63.68;100779.94;5001424;28;99336;-71
2023/12/02 06:52:08;;;;;;;33.17;15.57;;;;;;;-1.42;63.49;100784.16;5005998;28;97043;-72
2023/12/02 06:54:37;;;;;;;45.13;18.00;;;;;;;-1.39;63.62;100770.50;5004549;28;98094;-72
2023/12/02 06:57:05;;;;;;;34.43;16.30;;;;;;;-1.38;63.40;100780.16;5002497;28;98495;-72
2023/12/02 06:59:31;;;;;;;38.27;17.87;;;;;;;-1.39;63.51;100781.38;5002643;28;100533;-72
2023/12/02 07:01:57;;;;;;;35.70;17.03;;;;;;;-1.37;63.57;100792.53;5002469;28;97972;-72
2023/12/02 07:04:22;;;;;;;48.67;18.00;;;;;;;-1.35;63.69;100792.09;5002892;28;97453;-72
2023/12/02 07:06:47;;;;;;;39.60;17.00;;;;;;;-1.36;63.52;100793.31;5003020;28;97338;-71
2023/12/02 07:09:13;;;;;;;37.20;17.10;;;;;;;-1.34;63.47;100793.63;5004266;28;100872;-72
2023/12/02 07:11:38;;;;;;;37.67;16.90;;;;;;;-1.32;63.62;100802.09;5003768;28;97136;-72
2023/12/02 07:14:03;;;;;;;40.37;17.67;;;;;;;-1.31;63.68;100790.03;5000165;28;97229;-72
2023/12/02 07:16:29;;;;;;;37.93;16.70;;;;;;;-1.30;63.49;100797.00;5002887;28;98386;-72
2023/12/02 07:18:54;;;;;;;38.43;16.93;;;;;;;-1.30;63.62;100800.50;5002294;28;97407;-72
2023/12/02 07:21:20;;;;;;;39.90;17.47;;;;;;;-1.32;63.56;100805.56;5002216;28;97143;-72
2023/12/02 07:23:45;;;;;;;35.60;16.90;;;;;;;-1.27;63.41;100798.84;5001958;28;97290;-72
2023/12/02 07:26:10;;;;;;;38.67;16.90;;;;;;;-1.25;63.70;100810.03;5004072;28;103421;-72
2023/12/02 07:28:36;;;;;;;33.13;16.17;;;;;;;-1.24;63.53;100814.28;5001439;28;99072;-72
2023/12/02 07:31:01;;;;;;;36.03;16.60;;;;;;;-1.24;63.57;100817.00;5001976;28;97130;-72
2023/12/02 07:33:26;;;;;;;34.77;16.63;;;;;;;-1.25;63.67;100829.03;5003831;28;97283;-72
2023/12/02 07:35:52;;;;;;;34.13;16.30;;;;;;;-1.25;63.47;100835.22;5002027;28;97691;-72
2023/12/02 07:38:17;;;;;;;38.13;17.37;;;;;;;-1.25;63.78;100826.31;5003232;28;97727;-72
2023/12/02 07:40:43;;;;;;;37.23;18.23;;;;;;;-1.23;63.46;100830.13;5003224;28;97395;-72
2023/12/02 07:43:09;;;;;;;36.43;16.90;;;;;;;-1.21;63.62;100825.03;5004171;28;97452;-72
2023/12/02 07:45:34;;;;;;;40.33;19.00;;;;;;;-1.17;63.69;100833.09;5005102;28;97662;-72
2023/12/02 07:47:59;;;;;;;41.77;17.30;;;;;;;-1.15;63.57;100825.28;5003610;28;97211;-72
2023/12/02 07:50:25;;;;;;;34.83;16.00;;;;;;;-1.13;63.43;100831.03;5003612;28;97022;-72
2023/12/02 07:52:51;;;;;;;45.30;18.77;;;;;;;-1.12;63.67;100829.81;5001558;28;96760;-72
2023/12/02 07:55:16;;;;;;;39.47;18.20;;;;;;;-1.11;63.49;100823.22;5004050;28;98687;-72
2023/12/02 07:57:42;;;;;;;38.10;18.07;;;;;;;-1.07;63.61;100826.56;5003109;28;97022;-72
2023/12/02 08:00:08;;;;;;;37.53;16.60;;;;;;;-1.05;63.71;100831.56;5004946;27;97103;-72
2023/12/02 08:02:33;;;;;;;40.60;19.27;;;;;;;-1.02;63.49;100833.44;5005326;28;96958;-72
2023/12/02 08:04:59;;;;;;;36.83;17.00;;;;;;;-1.02;63.62;100841.56;5006571;28;97500;-72
2023/12/02 08:07:24;;;;;;;37.47;19.00;;;;;;;-0.99;63.68;100841.47;5013474;28;97213;-72
2023/12/02 08:09:50;;;;;;;39.97;17.93;;;;;;;-0.97;63.43;100852.69;5004166;28;96650;-72
2023/12/02 08:12:15;;;;;;;42.00;17.70;;;;;;;-0.95;63.50;100842.16;5009915;28;97209;-73
2023/12/02 08:14:41;;;;;;;43.83;17.90;;;;;;;-0.95;63.58;100847.56;5013377;28;97504;-72
2023/12/02 08:17:06;;;;;;;41.27;17.23;;;;;;;-0.92;63.57;100854.09;5010808;28;97506;-72
2023/12/02 08:19:32;;;;;;;40.13;17.60;;;;;;;-0.92;63.41;100851.38;5016696;28;96835;-72
2023/12/02 08:21:57;;;;;;;41.03;19.07;;;;;;;-0.93;63.73;100853.34;5006943;28;97160;-73
2023/12/02 08:24:22;;;;;;;36.87;15.00;;;;;;;-0.93;63.74;100856.03;5004928;28;115180;-73
2023/12/02 08:26:48;;;;;;;36.10;16.80;;;;;;;-0.90;63.52;100852.44;5004539;28;97683;-72
2023/12/02 08:29:13;;;;;;;41.27;16.70;;;;;;;-0.90;63.77;100870.72;5005465;28;97125;-72
2023/12/02 08:31:39;;;;;;;39.13;16.53;;;;;;;-0.90;63.63;100863.31;5004565;28;96858;-72
2023/12/02 08:34:04;;;;;;;38.13;17.10;;;;;;;-0.87;63.62;100858.97;5004293;28;97848;-72
2023/12/02 08:36:30;;;;;;;42.63;17.50;;;;;;;-0.90;63.45;100871.47;5005256;28;97486;-72
2023/12/02 08:38:55;;;;;;;38.17;16.73;;;;;;;-0.90;63.75;100871.47;5004614;28;97118;-72
2023/12/02 08:41:21;;;;;;;37.63;16.30;;;;;;;-0.88;63.59;100877.22;5004072;28;97366;-72
2023/12/02 08:43:46;;;;;;;39.13;16.20;;;;;;;-0.86;63.65;100874.84;5007721;28;100347;-73
2023/12/02 08:46:18;;;;;;;39.27;17.37;;;;;;;-0.84;63.60;100877.13;5006640;28;97133;-72
2023/12/02 08:48:44;;;;;;;40.77;16.60;;;;;;;-0.82;63.97;100883.66;5005137;28;97478;-72
2023/12/02 08:51:09;;;;;;;49.97;17.40;;;;;;;-0.82;63.66;100878.22;5005582;28;97840;-72
2023/12/02 08:53:35;;;;;;;49.33;17.70;;;;;;;-0.78;63.71;100905.28;5004877;28;104561;-72
2023/12/02 08:56:00;;;;;;;43.00;17.27;;;;;;;-0.76;63.90;100883.88;5004144;28;99369;-72
2023/12/02 08:58:25;;;;;;;40.70;17.30;;;;;;;-0.74;63.77;100879.53;5005621;28;97184;-72
2023/12/02 09:00:51;;;;;;;35.30;16.70;;;;;;;-0.71;63.67;100888.78;5006357;28;97017;-72
2023/12/02 09:03:16;;;;;;;41.30;17.23;;;;;;;-0.69;63.50;100887.16;5002739;28;97451;-73
2023/12/02 09:05:42;;;;;;;42.07;18.10;;;;;;;-0.69;63.73;100889.88;5003866;28;97583;-72
2023/12/02 09:08:07;;;;;;;38.13;16.20;;;;;;;-0.67;63.84;100884.75;5004980;28;97744;-72
2023/12/02 09:10:32;;;;;;;50.30;19.10;;;;;;;-0.62;63.79;100886.91;5006386;28;96930;-72
2023/12/02 09:12:57;;;;;;;37.37;16.70;;;;;;;-0.60;63.96;100881.84;4994259;28;99615;-72
2023/12/02 09:15:23;;;;;;;39.57;16.17;;;;;;;-0.57;63.56;100878.25;5004648;28;102330;-73
2023/12/02 09:18:07;;;;;;;39.70;17.67;;;;;;;-0.56;63.46;100881.72;5004130;28;96857;-73
2023/12/02 09:20:53;;;;;;;41.00;17.57;;;;;;;-0.54;63.55;100888.25;5002259;28;98296;-73
2023/12/02 09:23:20;;;;;;;40.17;17.93;;;;;;;-0.52;63.83;100890.53;5004245;28;97320;-72
2023/12/02 09:25:47;;;;;;;39.80;17.60;;;;;;;-0.49;63.67;100905.97;5012759;27;99685;-72
2023/12/02 09:28:16;;;;;;;41.13;18.77;;;;;;;-0.48;63.60;100900.09;5003711;28;98357;-73
2023/12/02 09:30:54;;;;;;;44.27;17.90;;;;;;;-0.47;63.62;100898.91;5007585;28;97413;-72
2023/12/02 09:33:20;;;;;;;42.40;17.77;;;;;;;-0.46;63.83;100910.53;5004498;28;98605;-72
2023/12/02 09:35:48;;;;;;;39.00;17.87;;;;;;;-0.45;63.51;100906.63;5004350;28;97672;-72
2023/12/02 09:38:15;;;;;;;40.10;17.73;;;;;;;-0.44;63.81;100904.69;5005439;28;97045;-72
2023/12/02 09:40:58;;;;;;;36.97;18.30;;;;;;;-0.43;63.81;100919.78;5003358;28;97208;-73
2023/12/02 09:44:07;;;;;;;41.17;18.07;;;;;;;-0.42;63.64;100910.44;5004802;28;97167;-72
2023/12/02 09:46:40;;;;;;;40.80;16.87;;;;;;;-0.42;63.79;100915.88;5005450;28;97738;-72
2023/12/02 09:49:08;;;;;;;44.63;17.73;;;;;;;-0.41;63.70;100917.38;5004996;28;97681;-72
2023/12/02 09:51:54;;;;;;;40.63;17.20;;;;;;;-0.42;63.57;100916.59;5004685;28;97398;-73
2023/12/02 09:54:29;;;;;;;37.30;17.27;;;;;;;-0.39;63.78;100909.56;5011399;27;101225;-73
2023/12/02 09:56:56;;;;;;;36.93;15.77;;;;;;;-0.36;63.74;100914.13;4994587;28;98935;-72
2023/12/02 09:59:24;;;;;;;41.40;17.73;;;;;;;-0.33;63.71;100908.56;5007447;27;97407;-73
2023/12/02 10:02:03;;;;;;;45.00;18.33;;;;;;;-0.29;63.71;100916.63;5004059;28;97465;-72
2023/12/02 10:04:51;;;;;;;39.17;17.63;;;;;;;-0.26;63.66;100907.59;5002605;28;96891;-73
2023/12/02 10:07:34;;;;;;;38.70;17.60;;;;;;;-0.25;63.72;100907.19;5004108;28;97319;-73
2023/12/02 10:10:09;;;;;;;41.83;16.53;;;;;;;-0.23;63.59;100906.72;5003712;28;97233;-72
2023/12/02 10:12:53;;;;;;;43.17;18.20;;;;;;;-0.23;63.74;100898.59;5003962;28;97061;-72
2023/12/02 10:15:19;;;;;;;41.80;17.20;;;;;;;-0.19;63.77;100905.44;5002801;28;97196;-72
2023/12/02 10:17:52;;;;;;;54.30;18.13;;;;;;;-0.17;63.85;100910.44;5002080;28;100060;-72
2023/12/02 10:20:26;;;;;;;43.43;18.30;;;;;;;-0.13;63.76;100900.19;5001864;28;97591;-72
2023/12/02 10:23:01;;;;;;;39.43;16.70;;;;;;;-0.10;63.72;100900.09;5004775;28;96931;-73
2023/12/02 10:25:32;;;;;;;45.77;18.40;;;;;;;-0.09;63.65;100906.28;5003774;28;97357;-72
2023/12/02 10:28:08;;;;;;;40.53;17.23;;;;;;;-0.08;63.66;100899.66;5001558;28;97395;-72
2023/12/02 10:30:38;;;;;;;41.97;18.10;;;;;;;-0.05;63.72;100893.34;5003765;28;97345;-73
2023/12/02 10:33:23;;;;;;;39.87;17.47;;;;;;;-0.04;63.66;100897.56;5016614;27;97087;-72
2023/12/02 10:35:49;;;;;;;37.00;16.37;;;;;;;-0.01;63.68;100888.56;5004835;28;98391;-72
2023/12/02 10:38:22;;;;;;;42.73;17.97;;;;;;;0.03;63.79;100894.63;5003283;28;97125;-72
2023/12/02 10:41:08;;;;;;;44.23;17.43;;;;;;;0.06;63.69;100894.50;5003767;28;97076;-72
2023/12/02 10:43:47;;;;;;;40.60;17.30;;;;;;;0.07;63.84;100890.59;5002116;28;97218;-72
2023/12/02 10:46:12;;;;;;;46.00;18.30;;;;;;;0.11;63.78;100888.53;4992668;28;100151;-72
2023/12/02 10:48:42;;;;;;;42.23;18.23;;;;;;;0.13;63.61;100893.53;5003524;28;97265;-73
2023/12/02 10:51:09;;;;;;;43.43;18.03;;;;;;;0.15;63.68;100888.41;5003382;28;97240;-72
2023/12/02 10:53:36;;;;;;;39.17;17.47;;;;;;;0.15;63.63;100896.56;5002638;28;98068;-73
2023/12/02 10:56:07;;;;;;;42.80;18.37;;;;;;;0.18;63.52;100892.97;5001883;28;98041;-72
2023/12/02 10:58:32;;;;;;;38.67;16.60;;;;;;;0.19;63.53;100897.97;5001463;28;100379;-73
2023/12/02 11:01:04;;;;;;;41.50;19.43;;;;;;;0.21;63.70;100894.81;5003538;28;97064;-71
2023/12/02 11:03:55;;;;;;;38.67;17.20;;;;;;;0.21;63.67;100892.09;5003623;28;97314;-72
2023/12/02 11:06:43;;;;;;;44.60;17.37;;;;;;;0.19;63.88;100903.41;5002480;28;99000;-72
2023/12/02 11:09:16;;;;;;;39.93;17.80;;;;;;;0.21;63.67;100890.13;5000755;28;100501;-72